createdAt,value
2022-12-29T00:02:16.726Z,3.83
2022-12-29T00:04:43.972Z,2.13
2022-12-29T00:07:12.255Z,3.13
2022-12-29T00:09:39.384Z,3.10
2022-12-29T00:12:06.514Z,3.13
2022-12-29T00:14:52.087Z,3.57
2022-12-29T00:17:20.415Z,4.40
2022-12-29T00:20:05.790Z,5.27
2022-12-29T00:22:51.211Z,3.30
2022-12-29T00:25:36.908Z,4.80
2022-12-29T00:28:22.355Z,6.53
2022-12-29T00:31:07.737Z,3.43
2022-12-29T00:34:05.176Z,5.20
2022-12-29T00:36:35.855Z,2.90
2022-12-29T00:39:25.290Z,3.57
2022-12-29T00:42:10.860Z,3.60
2022-12-29T00:44:37.696Z,4.30
2022-12-29T00:47:05.411Z,2.40
2022-12-29T00:49:34.072Z,2.70
2022-12-29T00:52:03.331Z,2.67
2022-12-29T00:54:32.123Z,2.27
2022-12-29T00:56:59.196Z,5.87
2022-12-29T00:59:26.557Z,2.70
2022-12-29T01:01:54.897Z,3.50
2022-12-29T01:04:23.473Z,2.80
2022-12-29T01:06:52.061Z,2.47
2022-12-29T01:09:38.793Z,3.60
2022-12-29T01:12:07.372Z,5.70
2022-12-29T01:14:34.359Z,4.23
2022-12-29T01:17:01.210Z,4.67
2022-12-29T01:19:28.152Z,1.70
2022-12-29T01:21:56.682Z,2.93
2022-12-29T01:24:23.662Z,3.73
2022-12-29T01:26:50.737Z,2.83
2022-12-29T01:29:18.325Z,1.43
2022-12-29T01:31:45.323Z,3.10
2022-12-29T01:34:12.641Z,2.53
2022-12-29T01:36:39.580Z,1.67
2022-12-29T01:39:07.752Z,1.97
2022-12-29T01:41:34.680Z,1.80
2022-12-29T01:44:02.591Z,3.53
2022-12-29T01:46:32.762Z,2.87
2022-12-29T01:49:08.874Z,3.03
2022-12-29T01:51:39.542Z,1.43
2022-12-29T01:54:12.724Z,2.73
2022-12-29T01:56:39.865Z,4.70
2022-12-29T01:59:12.497Z,3.27
2022-12-29T02:01:39.631Z,3.53
2022-12-29T02:04:07.157Z,3.40
2022-12-29T02:06:39.211Z,4.47
2022-12-29T02:09:07.490Z,3.27
2022-12-29T02:11:36.279Z,2.20
2022-12-29T02:14:06.327Z,3.33
2022-12-29T02:16:45.685Z,3.27
2022-12-29T02:19:44.793Z,2.20
2022-12-29T02:22:22.065Z,2.30
2022-12-29T02:25:24.156Z,1.83
2022-12-29T02:27:56.231Z,1.80
2022-12-29T02:30:44.886Z,1.50
2022-12-29T02:33:21.898Z,3.63
2022-12-29T02:35:57.043Z,3.60
2022-12-29T02:38:39.350Z,2.73
2022-12-29T02:41:11.687Z,2.07
2022-12-29T02:43:45.574Z,1.90
2022-12-29T02:46:21.276Z,4.50
2022-12-29T02:48:55.427Z,1.87
2022-12-29T02:51:27.263Z,2.43
2022-12-29T02:54:14.768Z,1.57
2022-12-29T02:56:41.785Z,2.23
2022-12-29T02:59:09.350Z,1.17
2022-12-29T03:02:09.840Z,1.83
2022-12-29T03:04:44.407Z,3.13
2022-12-29T03:07:19.552Z,1.67
2022-12-29T03:09:55.814Z,2.03
2022-12-29T03:12:49.710Z,2.57
2022-12-29T03:15:41.476Z,2.33
2022-12-29T03:18:15.561Z,1.20
2022-12-29T03:20:48.233Z,1.33
2022-12-29T03:23:15.340Z,3.67
2022-12-29T03:25:47.277Z,1.57
2022-12-29T03:28:19.381Z,1.90
2022-12-29T03:30:47.379Z,2.60
2022-12-29T03:33:19.427Z,1.07
2022-12-29T03:35:49.237Z,1.70
2022-12-29T03:38:19.811Z,2.00
2022-12-29T03:40:50.602Z,4.57
2022-12-29T03:43:18.421Z,2.33
2022-12-29T03:45:45.289Z,2.60
2022-12-29T03:48:12.160Z,1.20
2022-12-29T03:50:40.341Z,3.17
2022-12-29T03:53:07.211Z,1.57
2022-12-29T03:55:34.531Z,1.70
2022-12-29T03:58:01.563Z,1.87
2022-12-29T04:00:29.259Z,4.37
2022-12-29T04:02:56.347Z,3.90
2022-12-29T04:05:23.323Z,1.80
2022-12-29T04:07:51.723Z,1.13
2022-12-29T04:10:18.753Z,2.37
2022-12-29T04:12:47.528Z,4.07
2022-12-29T04:15:14.584Z,3.50
2022-12-29T04:17:41.579Z,2.17
2022-12-29T04:20:27.893Z,1.30
2022-12-29T04:23:00.913Z,3.53
2022-12-29T04:25:28.220Z,1.90
2022-12-29T04:27:55.130Z,1.13
2022-12-29T04:30:22.024Z,1.93
2022-12-29T04:32:48.997Z,1.67
2022-12-29T04:35:15.951Z,2.47
2022-12-29T04:37:42.918Z,1.70
2022-12-29T04:40:12.673Z,1.10
2022-12-29T04:42:39.578Z,2.70
2022-12-29T04:45:07.730Z,2.90
2022-12-29T04:47:34.742Z,2.27
2022-12-29T04:50:01.607Z,2.00
2022-12-29T04:52:28.573Z,1.70
2022-12-29T04:54:55.439Z,2.83
2022-12-29T04:57:23.658Z,2.73
2022-12-29T04:59:50.588Z,3.93
2022-12-29T05:02:17.898Z,2.07
2022-12-29T05:04:45.823Z,6.07
2022-12-29T05:07:12.878Z,2.50
2022-12-29T05:09:39.711Z,2.43
2022-12-29T05:12:07.320Z,4.93
2022-12-29T05:14:35.735Z,1.73
2022-12-29T05:17:02.678Z,2.27
2022-12-29T05:19:29.474Z,1.73
2022-12-29T05:21:56.335Z,2.00
2022-12-29T05:24:23.205Z,3.83
2022-12-29T05:26:50.070Z,2.27
2022-12-29T05:29:16.979Z,2.00
2022-12-29T05:31:46.432Z,4.00
2022-12-29T05:34:13.410Z,1.77
2022-12-29T05:36:41.199Z,4.17
2022-12-29T05:39:08.651Z,4.33
2022-12-29T05:41:35.747Z,5.27
2022-12-29T05:44:02.919Z,2.33
2022-12-29T05:46:29.989Z,2.90
2022-12-29T05:48:58.307Z,1.63
2022-12-29T05:51:25.294Z,2.27
2022-12-29T05:53:52.156Z,1.80
2022-12-29T05:56:19.199Z,4.37
2022-12-29T05:58:46.039Z,2.60
2022-12-29T06:01:12.905Z,2.73
2022-12-29T06:03:44.423Z,2.50
2022-12-29T06:06:16.813Z,0.93
2022-12-29T06:08:44.095Z,4.10
2022-12-29T06:11:11.406Z,4.13
2022-12-29T06:13:38.579Z,2.50
2022-12-29T06:16:06.263Z,2.67
2022-12-29T06:18:33.160Z,3.60
2022-12-29T06:21:01.657Z,1.77
2022-12-29T06:23:29.971Z,1.60
2022-12-29T06:25:56.869Z,3.27
2022-12-29T06:28:23.726Z,2.97
2022-12-29T06:30:50.747Z,0.87
2022-12-29T06:33:17.634Z,4.80
2022-12-29T06:35:46.971Z,4.37
2022-12-29T06:38:14.339Z,3.43
2022-12-29T06:40:43.038Z,2.50
2022-12-29T06:43:09.930Z,3.70
2022-12-29T06:45:39.668Z,3.80
2022-12-29T06:48:07.135Z,1.73
2022-12-29T06:50:33.950Z,2.07
2022-12-29T06:53:00.829Z,3.13
2022-12-29T06:55:29.153Z,1.90
2022-12-29T06:57:58.403Z,4.00
2022-12-29T07:00:25.823Z,1.40
2022-12-29T07:02:53.246Z,2.87
2022-12-29T07:05:20.263Z,1.60
2022-12-29T07:07:47.131Z,2.70
2022-12-29T07:10:14.005Z,2.97
2022-12-29T07:12:40.991Z,2.93
2022-12-29T07:15:10.231Z,1.63
2022-12-29T07:17:37.121Z,3.27
2022-12-29T07:20:04.688Z,2.73
2022-12-29T07:22:31.567Z,2.53
2022-12-29T07:24:58.489Z,3.83
2022-12-29T07:27:25.411Z,2.50
2022-12-29T07:29:52.227Z,2.27
2022-12-29T07:32:20.546Z,5.03
2022-12-29T07:34:48.459Z,4.30
2022-12-29T07:37:16.601Z,3.00
2022-12-29T07:39:44.473Z,3.00
2022-12-29T07:42:11.294Z,2.10
2022-12-29T07:44:38.065Z,2.27
2022-12-29T07:47:05.038Z,2.17
2022-12-29T07:49:33.343Z,2.70
2022-12-29T07:52:00.296Z,5.73
2022-12-29T07:54:27.122Z,2.90
2022-12-29T07:56:54.045Z,4.20
2022-12-29T07:59:21.155Z,2.40
2022-12-29T08:01:48.271Z,3.70
2022-12-29T08:04:15.304Z,3.03
2022-12-29T08:06:43.668Z,4.23
2022-12-29T08:09:14.950Z,3.10
2022-12-29T08:11:44.365Z,4.07
2022-12-29T08:14:11.446Z,2.27
2022-12-29T08:16:38.389Z,2.93
2022-12-29T08:19:06.016Z,5.40
2022-12-29T08:21:33.347Z,3.77
2022-12-29T08:24:01.686Z,3.43
2022-12-29T08:26:28.481Z,4.50
2022-12-29T08:28:56.649Z,1.47
2022-12-29T08:31:24.417Z,3.13
2022-12-29T08:33:51.707Z,3.67
2022-12-29T08:36:18.780Z,2.87
2022-12-29T08:38:45.698Z,2.30
2022-12-29T08:41:13.945Z,5.33
2022-12-29T08:43:40.839Z,3.13
2022-12-29T08:46:07.796Z,3.63
2022-12-29T08:48:34.724Z,5.00
2022-12-29T08:51:01.581Z,5.93
2022-12-29T08:53:28.455Z,3.30
2022-12-29T08:56:04.579Z,3.87
2022-12-29T08:58:33.946Z,4.13
2022-12-29T09:01:00.965Z,3.10
2022-12-29T09:06:16.024Z,2.60
2022-12-29T09:08:42.865Z,3.53
2022-12-29T09:11:10.924Z,4.80
2022-12-29T09:13:39.693Z,3.47
2022-12-29T09:16:07.098Z,3.97
2022-12-29T09:18:34.449Z,5.43
2022-12-29T09:21:03.907Z,4.37
2022-12-29T09:23:31.939Z,3.50
2022-12-29T09:25:59.041Z,5.23
2022-12-29T09:28:26.415Z,3.50
2022-12-29T09:30:54.951Z,4.93
2022-12-29T09:33:21.892Z,2.87
2022-12-29T09:35:52.716Z,5.63
2022-12-29T09:38:19.609Z,4.00
2022-12-29T09:40:51.014Z,6.43
2022-12-29T09:43:41.367Z,5.03
2022-12-29T09:46:19.710Z,5.10
2022-12-29T09:48:52.028Z,6.27
2022-12-29T09:51:23.496Z,5.70
2022-12-29T09:53:54.743Z,6.17
2022-12-29T09:56:24.539Z,3.93
2022-12-29T09:58:57.668Z,3.23
2022-12-29T10:01:31.591Z,5.77
2022-12-29T10:04:00.600Z,5.30
2022-12-29T10:06:33.890Z,5.63
2022-12-29T10:09:09.282Z,3.33
2022-12-29T10:11:56.097Z,1.87
2022-12-29T10:14:36.686Z,2.23
2022-12-29T10:17:13.629Z,7.50
2022-12-29T10:20:04.749Z,4.23
2022-12-29T10:22:47.993Z,5.30
2022-12-29T10:25:20.200Z,3.00
2022-12-29T10:27:50.043Z,2.57
2022-12-29T10:30:18.192Z,1.40
2022-12-29T10:32:51.624Z,1.73
2022-12-29T10:35:20.681Z,3.10
2022-12-29T10:37:53.324Z,4.43
2022-12-29T10:40:25.963Z,2.97
2022-12-29T10:42:55.346Z,1.37
2022-12-29T10:45:25.017Z,1.87
2022-12-29T10:48:00.053Z,3.57
2022-12-29T10:50:27.615Z,1.23
2022-12-29T10:52:56.103Z,1.33
2022-12-29T10:55:29.016Z,1.17
2022-12-29T10:58:00.438Z,1.20
2022-12-29T11:00:27.249Z,1.40
2022-12-29T11:03:17.153Z,1.83
2022-12-29T11:05:50.704Z,2.63
2022-12-29T11:08:20.172Z,1.33
2022-12-29T11:10:57.863Z,1.63
2022-12-29T11:13:29.933Z,4.83
2022-12-29T11:16:01.791Z,2.43
2022-12-29T11:18:34.613Z,1.07
2022-12-29T11:21:03.822Z,1.27
2022-12-29T11:23:33.594Z,2.13
2022-12-29T11:26:20.643Z,0.37
2022-12-29T11:29:05.112Z,1.10
2022-12-29T11:31:32.115Z,0.60
2022-12-29T11:34:07.271Z,2.03
2022-12-29T11:36:35.590Z,1.37
2022-12-29T11:39:04.820Z,1.03
2022-12-29T11:41:34.680Z,2.43
2022-12-29T11:44:06.349Z,3.07
2022-12-29T11:46:35.441Z,2.20
2022-12-29T11:49:05.105Z,1.83
2022-12-29T11:51:37.143Z,2.10
2022-12-29T11:54:06.060Z,1.87
2022-12-29T11:56:40.789Z,1.37
2022-12-29T11:59:40.431Z,1.30
2022-12-29T12:02:43.090Z,2.47
2022-12-29T12:05:19.610Z,1.63
2022-12-29T12:07:48.535Z,3.47
2022-12-29T12:10:23.788Z,2.67
2022-12-29T12:12:59.549Z,3.43
2022-12-29T12:15:30.838Z,1.70
2022-12-29T12:18:03.446Z,2.50
2022-12-29T12:20:42.387Z,2.27
2022-12-29T12:23:19.811Z,1.43
2022-12-29T12:25:55.576Z,3.00
2022-12-29T12:28:36.283Z,5.07
2022-12-29T12:31:06.996Z,2.70
2022-12-29T12:33:39.981Z,2.10
2022-12-29T12:36:38.070Z,2.63
2022-12-29T12:39:11.705Z,2.20
2022-12-29T12:41:47.908Z,1.80
2022-12-29T12:44:25.815Z,1.90
2022-12-29T12:47:16.641Z,1.77
2022-12-29T12:50:06.167Z,1.70
2022-12-29T12:52:44.241Z,3.10
2022-12-29T12:55:35.212Z,3.40
2022-12-29T12:58:11.083Z,2.63
2022-12-29T13:00:51.579Z,1.70
2022-12-29T13:03:29.781Z,1.67
2022-12-29T13:06:13.293Z,1.77
2022-12-29T13:09:09.244Z,3.80
2022-12-29T13:11:52.541Z,2.83
2022-12-29T13:14:33.989Z,1.00
2022-12-29T13:17:07.144Z,1.10
2022-12-29T13:19:41.130Z,1.37
2022-12-29T13:22:12.810Z,2.77
2022-12-29T13:24:51.699Z,1.23
2022-12-29T13:27:30.688Z,2.70
2022-12-29T13:30:05.386Z,2.10
2022-12-29T13:32:45.640Z,1.07
2022-12-29T13:35:27.276Z,3.73
2022-12-29T13:37:58.209Z,2.70
2022-12-29T13:40:29.869Z,3.53
2022-12-29T13:42:58.113Z,2.27
2022-12-29T13:45:29.439Z,1.67
2022-12-29T13:48:02.954Z,1.77
2022-12-29T13:50:33.199Z,3.00
2022-12-29T13:53:07.175Z,4.60
2022-12-29T13:55:41.632Z,2.17
2022-12-29T13:58:23.209Z,2.20
2022-12-29T14:00:56.282Z,2.30
2022-12-29T14:03:46.398Z,2.10
2022-12-29T14:06:19.455Z,1.67
2022-12-29T14:08:46.985Z,2.37
2022-12-29T14:11:17.587Z,4.33
2022-12-29T14:13:47.134Z,2.60
2022-12-29T14:16:27.409Z,6.00
2022-12-29T14:18:55.546Z,3.37
2022-12-29T14:21:28.754Z,2.97
2022-12-29T14:24:01.995Z,2.63
2022-12-29T14:26:36.850Z,1.53
2022-12-29T14:29:41.251Z,2.90
2022-12-29T14:32:38.401Z,3.73
2022-12-29T14:35:40.386Z,2.30
2022-12-29T14:38:19.766Z,2.97
2022-12-29T14:40:48.925Z,4.07
2022-12-29T14:43:26.798Z,2.23
2022-12-29T14:45:57.747Z,2.30
2022-12-29T14:48:39.263Z,2.57
2022-12-29T14:51:29.948Z,3.03
2022-12-29T14:53:56.901Z,3.80
2022-12-29T14:56:28.306Z,3.60
2022-12-29T14:58:59.510Z,2.63
2022-12-29T15:01:37.576Z,2.57
2022-12-29T15:04:15.799Z,2.43
2022-12-29T15:06:45.732Z,5.27
2022-12-29T15:09:24.259Z,2.97
2022-12-29T15:11:53.815Z,4.17
2022-12-29T15:14:33.607Z,1.13
2022-12-29T15:17:00.716Z,4.33
2022-12-29T15:19:28.707Z,3.00
2022-12-29T15:21:56.609Z,3.43
2022-12-29T15:24:24.422Z,4.93
2022-12-29T15:26:53.822Z,2.80
2022-12-29T15:29:36.701Z,3.77
2022-12-29T15:32:21.560Z,6.80
2022-12-29T15:34:50.916Z,3.37
2022-12-29T15:37:23.690Z,3.13
2022-12-29T15:39:50.732Z,2.87
2022-12-29T15:42:30.859Z,4.70
2022-12-29T15:45:10.340Z,4.03
2022-12-29T15:47:39.084Z,6.33
2022-12-29T15:50:10.763Z,6.20
2022-12-29T15:52:40.749Z,2.90
2022-12-29T15:55:19.326Z,3.83
2022-12-29T15:57:46.234Z,5.40
2022-12-29T16:00:26.562Z,5.73
2022-12-29T16:02:54.709Z,6.00
2022-12-29T16:05:21.975Z,2.97
2022-12-29T16:07:57.380Z,3.93
2022-12-29T16:10:31.116Z,5.30
2022-12-29T16:13:04.469Z,3.57
2022-12-29T16:15:32.936Z,4.93
2022-12-29T16:18:00.123Z,3.27
2022-12-29T16:20:37.958Z,3.90
2022-12-29T16:23:04.845Z,3.70
2022-12-29T16:25:35.299Z,3.40
2022-12-29T16:28:04.471Z,6.00
2022-12-29T16:30:35.465Z,3.13
2022-12-29T16:33:05.002Z,3.30
2022-12-29T16:35:40.460Z,3.50
2022-12-29T16:38:15.488Z,5.77
2022-12-29T16:40:52.018Z,5.10
2022-12-29T16:43:24.789Z,6.13
2022-12-29T16:46:28.668Z,3.47
2022-12-29T16:48:57.249Z,3.67
2022-12-29T16:51:31.538Z,5.00
2022-12-29T16:54:00.080Z,5.17
2022-12-29T16:56:29.830Z,4.27
2022-12-29T16:59:02.662Z,6.63
2022-12-29T17:01:31.255Z,5.93
2022-12-29T17:04:02.224Z,3.73
2022-12-29T17:06:29.163Z,7.07
2022-12-29T17:08:56.049Z,4.80
2022-12-29T17:11:44.138Z,4.77
2022-12-29T17:14:37.104Z,4.80
2022-12-29T17:17:07.311Z,1.93
2022-12-29T17:19:38.310Z,3.87
2022-12-29T17:22:12.814Z,3.17
2022-12-29T17:24:39.794Z,3.43
2022-12-29T17:27:06.731Z,4.20
2022-12-29T17:29:36.004Z,4.03
2022-12-29T17:32:07.299Z,4.00
2022-12-29T17:34:34.589Z,7.60
2022-12-29T17:37:01.631Z,2.57
2022-12-29T17:39:28.850Z,2.80
2022-12-29T17:41:55.747Z,3.57
2022-12-29T17:44:25.457Z,5.60
2022-12-29T17:46:52.416Z,3.00
2022-12-29T17:49:20.629Z,2.20
2022-12-29T17:51:47.743Z,4.37
2022-12-29T17:54:21.356Z,3.40
2022-12-29T17:56:48.869Z,3.90
2022-12-29T17:59:16.191Z,6.20
2022-12-29T18:01:45.801Z,7.67
2022-12-29T18:04:14.652Z,8.20
2022-12-29T18:06:43.461Z,7.43
2022-12-29T18:09:10.789Z,3.47
2022-12-29T18:11:40.241Z,6.90
2022-12-29T18:14:11.913Z,5.00
2022-12-29T18:16:38.933Z,6.83
2022-12-29T18:19:05.828Z,4.60
2022-12-29T18:21:32.835Z,5.23
2022-12-29T18:24:01.105Z,7.13
2022-12-29T18:26:31.585Z,6.80
2022-12-29T18:28:59.478Z,7.53
2022-12-29T18:31:27.990Z,6.57
2022-12-29T18:33:56.629Z,4.03
2022-12-29T18:36:23.681Z,6.07
2022-12-29T18:38:53.176Z,7.13
2022-12-29T18:41:22.998Z,3.53
2022-12-29T18:43:50.225Z,4.90
2022-12-29T18:46:22.364Z,3.57
2022-12-29T18:48:50.282Z,5.03
2022-12-29T18:51:19.342Z,7.13
2022-12-29T18:53:46.988Z,4.57
2022-12-29T18:56:14.474Z,6.80
2022-12-29T18:58:42.672Z,2.93
2022-12-29T19:01:19.483Z,5.17
2022-12-29T19:03:46.624Z,5.07
2022-12-29T19:06:13.562Z,6.23
2022-12-29T19:08:40.364Z,6.00
2022-12-29T19:11:07.295Z,7.10
2022-12-29T19:13:34.182Z,5.23
2022-12-29T19:16:02.636Z,7.83
2022-12-29T19:18:43.730Z,7.90
2022-12-29T19:21:11.877Z,7.57
2022-12-29T19:23:38.835Z,4.50
2022-12-29T19:26:06.218Z,6.97
2022-12-29T19:28:33.143Z,8.27
2022-12-29T19:31:02.801Z,8.23
2022-12-29T19:33:29.963Z,7.80
2022-12-29T19:35:59.842Z,9.27
2022-12-29T19:38:26.732Z,7.00
2022-12-29T19:40:53.695Z,8.93
2022-12-29T19:43:20.658Z,12.47
2022-12-29T19:45:47.680Z,8.47
2022-12-29T19:48:17.447Z,3.50
2022-12-29T19:50:44.705Z,5.73
2022-12-29T19:53:11.977Z,12.10
2022-12-29T19:55:42.367Z,8.67
2022-12-29T19:58:09.309Z,5.23
2022-12-29T20:00:39.823Z,8.03
2022-12-29T20:03:06.981Z,5.97
2022-12-29T20:05:35.708Z,8.17
2022-12-29T20:08:03.029Z,6.60
2022-12-29T20:10:29.977Z,9.40
2022-12-29T20:12:56.909Z,7.77
2022-12-29T20:15:23.787Z,11.20
2022-12-29T20:20:38.935Z,4.77
2022-12-29T20:23:06.070Z,4.67
2022-12-29T20:25:48.617Z,6.97
2022-12-29T20:28:18.037Z,6.60
2022-12-29T20:30:45.003Z,6.70
2022-12-29T20:33:12.377Z,11.27
2022-12-29T20:35:41.044Z,9.30
2022-12-29T20:38:08.069Z,7.23
2022-12-29T20:40:40.877Z,12.60
2022-12-29T20:43:11.256Z,10.67
2022-12-29T20:45:38.484Z,7.47
2022-12-29T20:48:05.763Z,10.80
2022-12-29T20:50:32.712Z,11.87
2022-12-29T20:53:00.945Z,11.23
2022-12-29T20:55:27.782Z,9.80
2022-12-29T20:58:23.225Z,8.30
2022-12-29T21:00:41.816Z,10.93
2022-12-29T21:03:08.962Z,11.17
2022-12-29T21:05:37.453Z,7.40
2022-12-29T21:08:06.301Z,5.57
2022-12-29T21:10:33.150Z,10.07
2022-12-29T21:13:01.551Z,9.00
2022-12-29T21:15:29.982Z,9.53
2022-12-29T21:17:56.990Z,10.87
2022-12-29T21:20:31.565Z,6.90
2022-12-29T21:23:02.259Z,5.47
2022-12-29T21:25:37.343Z,9.87
2022-12-29T21:28:04.718Z,7.60
2022-12-29T21:30:31.882Z,10.33
2022-12-29T21:32:59.425Z,11.23
2022-12-29T21:35:26.323Z,9.43
2022-12-29T21:37:53.960Z,6.53
2022-12-29T21:40:22.620Z,7.73
2022-12-29T21:42:51.182Z,7.20
2022-12-29T21:45:27.470Z,8.23
2022-12-29T21:48:31.048Z,8.07
2022-12-29T21:51:29.920Z,7.33
2022-12-29T21:54:18.424Z,7.37
2022-12-29T21:56:48.024Z,12.20
2022-12-29T21:59:35.660Z,9.47
2022-12-29T22:02:22.963Z,5.10
2022-12-29T22:05:09.674Z,6.47
2022-12-29T22:07:56.171Z,8.87
2022-12-29T22:10:41.474Z,6.30
2022-12-29T22:13:08.327Z,9.57
2022-12-29T22:15:37.773Z,5.03
2022-12-29T22:18:05.012Z,4.70
2022-12-29T22:20:35.596Z,10.77
2022-12-29T22:23:03.217Z,6.20
2022-12-29T22:25:30.304Z,5.37
2022-12-29T22:27:59.819Z,9.70
2022-12-29T22:30:27.920Z,8.77
2022-12-29T22:32:57.281Z,7.50
2022-12-29T22:35:25.122Z,9.80
2022-12-29T22:37:52.055Z,5.97
2022-12-29T22:40:19.251Z,7.47
2022-12-29T22:42:46.164Z,3.90
2022-12-29T22:45:13.104Z,6.60
2022-12-29T22:47:40.219Z,7.90
2022-12-29T22:50:09.535Z,13.07
2022-12-29T22:52:36.712Z,12.80
2022-12-29T22:55:07.073Z,7.20
2022-12-29T22:57:34.639Z,13.37
2022-12-29T23:00:01.645Z,12.90
2022-12-29T23:02:28.808Z,9.37
2022-12-29T23:05:04.775Z,6.43
2022-12-29T23:07:34.798Z,8.63
2022-12-29T23:10:01.928Z,6.80
2022-12-29T23:12:30.425Z,5.60
2022-12-29T23:14:57.259Z,10.00
2022-12-29T23:17:25.188Z,14.27
2022-12-29T23:19:52.294Z,6.50
2022-12-29T23:22:19.648Z,10.53
2022-12-29T23:24:47.806Z,5.57
2022-12-29T23:27:14.739Z,12.40
2022-12-29T23:29:41.616Z,12.73
2022-12-29T23:32:08.552Z,11.83
2022-12-29T23:34:35.493Z,11.20
2022-12-29T23:37:02.355Z,7.60
2022-12-29T23:39:29.469Z,12.60
2022-12-29T23:41:58.061Z,11.97
2022-12-29T23:44:24.965Z,10.87
2022-12-29T23:46:51.960Z,8.17
2022-12-29T23:49:19.006Z,10.87
2022-12-29T23:51:45.934Z,7.63
2022-12-29T23:54:12.873Z,8.27
2022-12-29T23:56:39.757Z,9.67
2022-12-29T23:59:07.918Z,8.53
